createdAt,value
2018-01-08T13:25:36.964Z,14.70
2018-01-08T13:26:36.957Z,13.80
2018-01-08T13:27:36.953Z,14.10
2018-01-08T13:28:36.945Z,14.00
2018-01-08T13:29:36.942Z,13.40
2018-01-08T13:30:36.937Z,12.90
2018-01-08T13:31:36.930Z,12.10
2018-01-08T13:32:36.922Z,13.70
2018-01-08T13:33:36.919Z,11.60
2018-01-08T13:34:36.912Z,15.00
2018-01-08T13:35:36.909Z,14.90
2018-01-08T13:36:36.900Z,14.90
2018-01-08T13:37:36.894Z,16.50
2018-01-08T13:38:36.890Z,15.00
2018-01-08T13:39:36.885Z,14.90
2018-01-08T13:40:36.878Z,14.70
2018-01-08T13:41:36.878Z,16.00
2018-01-08T13:42:36.870Z,16.20
2018-01-08T13:43:36.861Z,18.20
2018-01-08T13:44:36.855Z,16.40
2018-01-08T13:45:36.851Z,15.20
2018-01-08T13:46:36.850Z,14.90
2018-01-08T13:47:36.839Z,15.40
2018-01-08T13:48:36.834Z,14.10
2018-01-08T13:49:36.828Z,13.30
2018-01-08T13:50:36.824Z,15.00
2018-01-08T13:51:36.817Z,14.10
2018-01-08T13:52:36.818Z,15.30
2018-01-08T13:53:36.806Z,13.60
2018-01-08T13:54:36.801Z,14.50
2018-01-08T13:55:36.796Z,12.50
2018-01-08T13:56:36.792Z,13.20
2018-01-08T13:57:36.786Z,13.30
2018-01-08T13:58:36.780Z,12.20
2018-01-08T13:59:36.776Z,14.70
2018-01-08T14:00:36.769Z,15.40
2018-01-08T14:01:36.764Z,15.70
2018-01-08T14:02:36.759Z,16.70
2018-01-08T14:03:36.754Z,15.50
2018-01-08T14:04:36.748Z,16.20
2018-01-08T14:05:36.743Z,14.70
2018-01-08T14:06:36.742Z,14.20
2018-01-08T14:07:36.735Z,13.30
2018-01-08T14:08:36.728Z,16.00
2018-01-08T14:09:36.724Z,20.20
2018-01-08T14:10:36.718Z,17.00
2018-01-08T14:11:36.714Z,17.00
2018-01-08T14:12:36.709Z,16.60
2018-01-08T14:13:36.704Z,19.00
2018-01-08T14:14:36.699Z,20.60
2018-01-08T14:15:36.693Z,18.80
2018-01-08T14:16:36.688Z,17.80
2018-01-08T14:17:36.682Z,15.60
2018-01-08T14:18:36.677Z,14.60
2018-01-08T14:19:36.671Z,15.40
2018-01-08T14:20:36.667Z,15.20
2018-01-08T14:21:36.661Z,15.80
2018-01-08T14:22:36.656Z,17.20
2018-01-08T14:23:36.651Z,15.50
2018-01-08T14:24:36.646Z,16.10
2018-01-08T14:25:36.640Z,16.50
2018-01-08T14:26:36.635Z,17.50
2018-01-08T14:27:36.631Z,15.50
2018-01-08T14:28:36.627Z,13.80
2018-01-08T14:29:36.621Z,15.30
2018-01-08T14:30:36.616Z,16.70
2018-01-08T14:31:36.610Z,16.30
2018-01-08T14:32:36.610Z,14.30
2018-01-08T14:33:36.598Z,16.00
2018-01-08T14:34:36.594Z,16.40
2018-01-08T14:35:36.588Z,15.50
2018-01-08T14:36:36.583Z,15.10
2018-01-08T14:37:36.579Z,16.10
2018-01-08T14:38:36.585Z,14.70
2018-01-08T14:39:36.568Z,15.00
2018-01-08T14:40:36.562Z,17.30
2018-01-08T14:41:36.557Z,17.40
2018-01-08T14:42:36.553Z,16.20
2018-01-08T14:43:36.549Z,15.60
2018-01-08T14:44:36.542Z,15.30
2018-01-08T14:45:36.537Z,15.30
2018-01-08T14:46:36.533Z,17.40
2018-01-08T14:47:36.528Z,16.60
2018-01-08T14:48:36.522Z,16.40
2018-01-08T14:49:36.517Z,17.30
2018-01-08T14:50:36.512Z,16.00
2018-01-08T14:51:36.509Z,15.70
2018-01-08T14:52:36.500Z,14.30
2018-01-08T14:53:36.496Z,15.20
2018-01-08T14:54:36.491Z,14.50
2018-01-08T14:55:36.486Z,16.80
2018-01-08T14:56:36.481Z,16.00
2018-01-08T14:57:36.476Z,15.50
2018-01-08T14:58:36.470Z,15.60
2018-01-08T14:59:36.467Z,16.90
2018-01-08T15:00:36.460Z,14.80
2018-01-08T15:01:36.455Z,15.20
2018-01-08T15:02:36.450Z,16.90
2018-01-08T15:03:36.464Z,13.40
2018-01-08T15:04:36.438Z,14.60
2018-01-08T15:05:36.434Z,15.90
2018-01-08T15:06:36.428Z,15.90
2018-01-08T15:07:36.475Z,16.60
2018-01-08T15:08:36.417Z,17.80
2018-01-08T15:09:36.412Z,20.20
2018-01-08T15:10:36.407Z,18.50
2018-01-08T15:11:36.403Z,15.40
2018-01-08T15:12:36.397Z,16.80
2018-01-08T15:13:36.391Z,18.10
2018-01-08T15:14:36.388Z,18.60
2018-01-08T15:15:36.382Z,20.40
2018-01-08T15:16:36.378Z,20.30
2018-01-08T15:17:36.370Z,21.00
2018-01-08T15:18:36.366Z,21.70
2018-01-08T15:19:36.361Z,19.10
2018-01-08T15:20:36.355Z,17.70
2018-01-08T15:21:36.350Z,16.60
2018-01-08T15:22:36.345Z,19.00
2018-01-08T15:23:36.338Z,19.70
2018-01-08T15:24:36.333Z,19.60
2018-01-08T15:25:36.327Z,18.70
2018-01-08T15:26:36.321Z,16.70
2018-01-08T15:27:36.317Z,15.90
2018-01-08T15:28:36.310Z,16.10
2018-01-08T15:29:36.304Z,16.30
2018-01-08T15:30:36.299Z,15.70
2018-01-08T15:31:36.295Z,18.30
2018-01-08T15:32:36.288Z,18.80
2018-01-08T15:33:36.284Z,18.80
2018-01-08T15:34:36.276Z,17.90
2018-01-08T15:35:36.272Z,16.20
2018-01-08T15:36:36.265Z,18.10
2018-01-08T15:37:36.259Z,20.00
2018-01-08T15:38:36.254Z,16.30
2018-01-08T15:39:36.248Z,15.70
2018-01-08T15:40:36.242Z,16.40
2018-01-08T15:41:36.236Z,15.70
2018-01-08T15:42:36.231Z,15.70
2018-01-08T15:43:36.225Z,15.80
2018-01-08T15:44:36.218Z,17.60
2018-01-08T15:45:36.214Z,16.70
2018-01-08T15:46:36.209Z,20.00
2018-01-08T15:47:36.203Z,20.00
2018-01-08T15:48:36.195Z,18.70
2018-01-08T15:49:36.190Z,17.20
2018-01-08T15:50:36.184Z,17.60
2018-01-08T15:51:36.182Z,17.20
2018-01-08T15:52:36.174Z,19.40
2018-01-08T15:53:36.168Z,20.80
2018-01-08T15:54:36.163Z,20.80
2018-01-08T15:55:36.158Z,21.80
2018-01-08T15:56:36.150Z,19.80
2018-01-08T15:57:36.144Z,18.40
2018-01-08T15:58:36.140Z,18.60
2018-01-08T15:59:36.163Z,17.80
2018-01-08T16:00:36.200Z,18.30
2018-01-08T16:01:36.122Z,18.70
2018-01-08T16:02:36.286Z,20.70
2018-01-08T16:03:36.111Z,22.40
2018-01-08T16:04:36.108Z,22.80
2018-01-08T16:05:36.099Z,25.10
2018-01-08T16:06:36.094Z,25.10
2018-01-08T16:07:36.093Z,22.20
2018-01-08T16:08:36.082Z,18.20
2018-01-08T16:09:36.076Z,19.60
2018-01-08T16:10:36.071Z,18.10
2018-01-08T16:11:36.064Z,19.30
2018-01-08T16:12:36.059Z,20.00
2018-01-08T16:13:36.053Z,18.00
2018-01-08T16:14:36.049Z,17.30
2018-01-08T16:15:36.043Z,20.80
2018-01-08T16:16:36.037Z,20.40
2018-01-08T16:17:36.031Z,21.80
2018-01-08T16:18:36.025Z,19.80
2018-01-08T16:19:36.021Z,22.60
2018-01-08T16:20:36.012Z,20.50
2018-01-08T16:21:36.008Z,23.40
2018-01-08T16:22:36.002Z,24.00
2018-01-08T16:23:36.003Z,19.80
2018-01-08T16:24:35.992Z,20.40
2018-01-08T16:25:35.986Z,20.20
2018-01-08T16:26:35.986Z,21.20
2018-01-08T16:27:36.009Z,20.00
2018-01-08T16:28:35.968Z,21.30
2018-01-08T16:29:35.963Z,22.00
2018-01-08T16:30:35.957Z,21.10
2018-01-08T16:31:35.952Z,23.00
2018-01-08T16:32:35.945Z,19.50
2018-01-08T16:33:35.940Z,23.00
2018-01-08T16:34:35.934Z,21.90
2018-01-08T16:35:35.929Z,22.30
2018-01-08T16:36:35.928Z,24.30
2018-01-08T16:37:35.917Z,24.60
2018-01-08T16:38:35.912Z,20.60
2018-01-08T16:39:35.907Z,19.50
2018-01-08T16:40:35.899Z,18.90
2018-01-08T16:41:35.932Z,19.90
2018-01-08T16:42:35.890Z,22.30
2018-01-08T16:43:35.883Z,20.20
2018-01-08T16:44:35.877Z,20.10
2018-01-08T16:45:35.872Z,21.90
2018-01-08T16:46:35.866Z,21.70
2018-01-08T16:47:35.862Z,19.90
2018-01-08T16:48:35.853Z,21.40
2018-01-08T16:49:35.849Z,24.20
2018-01-08T16:50:35.844Z,20.00
2018-01-08T16:51:35.839Z,23.70
2018-01-08T16:52:35.832Z,25.40
2018-01-08T16:53:35.827Z,26.50
2018-01-08T16:54:35.821Z,26.20
2018-01-08T16:55:35.818Z,26.20
2018-01-08T16:56:35.810Z,26.30
2018-01-08T16:57:35.804Z,27.00
2018-01-08T16:58:36.084Z,25.30
2018-01-08T16:59:35.793Z,24.60
2018-01-08T17:00:35.787Z,24.30
2018-01-08T17:01:35.783Z,24.90
2018-01-08T17:02:35.776Z,22.10
2018-01-08T17:03:35.769Z,22.00
2018-01-08T17:04:35.763Z,21.60
2018-01-08T17:05:35.758Z,19.30
2018-01-08T17:06:35.751Z,18.80
2018-01-08T17:07:35.746Z,21.90
2018-01-08T17:08:35.739Z,21.80
2018-01-08T17:09:35.734Z,21.60
2018-01-08T17:10:35.728Z,20.00
2018-01-08T17:11:35.723Z,23.00
2018-01-08T17:12:35.717Z,22.10
2018-01-08T17:13:35.711Z,21.30
2018-01-08T17:14:35.705Z,19.90
2018-01-08T17:15:35.700Z,20.10
2018-01-08T17:16:35.694Z,18.80
2018-01-08T17:17:35.688Z,20.20
2018-01-08T17:18:35.682Z,19.40
2018-01-08T17:19:35.677Z,18.10
2018-01-08T17:20:35.670Z,19.60
2018-01-08T17:21:35.664Z,21.30
2018-01-08T17:22:35.658Z,17.50
2018-01-08T17:23:35.653Z,16.30
2018-01-08T17:24:35.647Z,18.50
2018-01-08T17:25:35.641Z,19.20
2018-01-08T17:26:35.636Z,19.40
2018-01-08T17:27:35.629Z,19.40
2018-01-08T17:28:35.624Z,18.50
2018-01-08T17:29:35.617Z,17.00
2018-01-08T17:30:35.613Z,15.90
2018-01-08T17:31:35.605Z,19.60
2018-01-08T17:32:35.599Z,20.70
2018-01-08T17:33:35.593Z,22.60
2018-01-08T17:34:35.589Z,22.40
2018-01-08T17:35:35.583Z,27.40
2018-01-08T17:36:35.577Z,21.60
2018-01-08T17:37:35.571Z,23.40
2018-01-08T17:38:35.564Z,22.10
2018-01-08T17:39:35.559Z,19.30
2018-01-08T17:40:35.553Z,20.60
2018-01-08T17:41:35.548Z,20.90
2018-01-08T17:42:35.541Z,22.30
2018-01-08T17:43:35.537Z,22.70
2018-01-08T17:44:35.529Z,19.30
2018-01-08T17:45:35.524Z,20.90
2018-01-08T17:46:35.519Z,23.80
2018-01-08T17:47:35.513Z,23.30
2018-01-08T17:48:35.507Z,20.30
2018-01-08T17:49:35.501Z,17.50
2018-01-08T17:50:35.494Z,20.50
2018-01-08T17:51:35.487Z,20.50
2018-01-08T17:52:35.482Z,18.60
2018-01-08T17:53:35.476Z,19.80
2018-01-08T17:54:35.469Z,22.20
2018-01-08T17:55:35.464Z,21.50
2018-01-08T17:56:35.492Z,18.70
2018-01-08T17:57:35.452Z,18.70
2018-01-08T17:58:35.445Z,19.50
2018-01-08T17:59:35.443Z,21.10
2018-01-08T18:00:35.433Z,23.50
2018-01-08T18:01:35.427Z,21.40
2018-01-08T18:02:35.422Z,21.40
2018-01-08T18:03:35.417Z,22.30
2018-01-08T18:04:35.410Z,21.80
2018-01-08T18:05:35.403Z,26.30
2018-01-08T18:06:35.396Z,28.60
2018-01-08T18:07:35.391Z,26.50
2018-01-08T18:08:35.405Z,25.20
2018-01-08T18:09:35.378Z,21.00
2018-01-08T18:10:35.372Z,20.00
2018-01-08T18:11:35.366Z,20.70
2018-01-08T18:12:35.365Z,21.50
2018-01-08T18:13:35.633Z,16.50
2018-01-08T18:14:35.351Z,16.80
2018-01-08T18:15:35.341Z,17.60
2018-01-08T18:16:35.334Z,15.80
2018-01-08T18:17:35.329Z,15.80
2018-01-08T18:18:35.323Z,16.70
2018-01-08T18:19:35.318Z,17.30
2018-01-08T18:20:35.310Z,16.90
2018-01-08T18:21:35.305Z,16.30
2018-01-08T18:22:35.300Z,15.80
2018-01-08T18:23:35.295Z,16.10
2018-01-08T18:24:35.290Z,17.40
2018-01-08T18:25:35.283Z,16.10
2018-01-08T18:26:35.276Z,15.70
2018-01-08T18:27:35.268Z,16.20
2018-01-08T18:28:35.262Z,16.50
2018-01-08T18:29:35.256Z,18.60
2018-01-08T18:30:35.250Z,17.30
2018-01-08T18:31:35.244Z,17.40
2018-01-08T18:32:35.244Z,18.10
2018-01-08T18:33:35.232Z,17.30
2018-01-08T18:34:35.226Z,17.80
2018-01-08T18:35:35.220Z,17.20
2018-01-08T18:36:35.216Z,16.90
2018-01-08T18:37:35.209Z,19.10
2018-01-08T18:38:35.202Z,22.70
2018-01-08T18:39:35.196Z,21.00
2018-01-08T18:40:35.191Z,20.50
2018-01-08T18:41:35.184Z,17.10
2018-01-08T18:42:35.178Z,16.20
2018-01-08T18:43:35.172Z,15.40
2018-01-08T18:44:35.166Z,15.10
2018-01-08T18:45:35.159Z,17.10
2018-01-08T18:46:35.155Z,18.30
2018-01-08T18:47:35.148Z,16.50
2018-01-08T18:48:35.427Z,16.60
2018-01-08T18:49:35.137Z,18.60
2018-01-08T18:50:35.130Z,16.80
2018-01-08T18:51:35.124Z,15.50
2018-01-08T18:52:35.117Z,18.70
2018-01-08T18:53:35.112Z,19.10
2018-01-08T18:54:35.104Z,18.40
2018-01-08T18:55:35.101Z,20.00
2018-01-08T18:56:35.094Z,19.80
2018-01-08T18:57:35.088Z,18.20
2018-01-08T18:58:35.080Z,19.60
2018-01-08T18:59:35.075Z,21.90
2018-01-08T19:00:35.068Z,19.80
2018-01-08T19:01:35.062Z,19.40
2018-01-08T19:02:35.057Z,21.10
2018-01-08T19:03:35.051Z,18.50
2018-01-08T19:04:35.044Z,18.90
2018-01-08T19:05:35.037Z,17.00
2018-01-08T19:06:35.031Z,15.40
2018-01-08T19:07:35.027Z,16.30
2018-01-08T19:08:35.019Z,19.40
2018-01-08T19:09:35.013Z,17.70
2018-01-08T19:10:35.007Z,16.80
2018-01-08T19:11:35.002Z,18.00
2018-01-08T19:12:34.995Z,18.50
2018-01-08T19:13:34.989Z,18.70
2018-01-08T19:14:34.982Z,20.10
2018-01-08T19:15:34.978Z,18.30
2018-01-08T19:16:34.969Z,16.40
2018-01-08T19:17:35.009Z,18.50
2018-01-08T19:18:34.958Z,18.90
2018-01-08T19:19:34.953Z,23.50
2018-01-08T19:20:34.947Z,20.30
2018-01-08T19:21:34.940Z,18.40
2018-01-08T19:22:34.934Z,20.30
2018-01-08T19:23:34.928Z,19.50
2018-01-08T19:24:34.925Z,21.20
2018-01-08T19:25:34.916Z,20.30
2018-01-08T19:26:34.910Z,19.40
2018-01-08T19:27:34.904Z,20.80
2018-01-08T19:28:34.898Z,18.00
2018-01-08T19:29:34.892Z,17.00
2018-01-08T19:30:34.886Z,15.40
2018-01-08T19:31:34.878Z,15.90
2018-01-08T19:32:34.873Z,18.40
2018-01-08T19:33:34.867Z,18.10
2018-01-08T19:34:34.860Z,19.40
2018-01-08T19:35:34.855Z,16.00
2018-01-08T19:36:34.848Z,17.60
2018-01-08T19:37:34.842Z,14.60
2018-01-08T19:38:34.837Z,16.40
2018-01-08T19:39:34.830Z,20.50
2018-01-08T19:40:34.827Z,15.30
2018-01-08T19:41:34.818Z,15.30
2018-01-08T19:42:34.812Z,17.10
2018-01-08T19:43:34.834Z,14.90
2018-01-08T19:44:34.799Z,13.50
2018-01-08T19:45:34.794Z,15.20
2018-01-08T19:46:34.788Z,17.00
2018-01-08T19:47:34.783Z,22.50
2018-01-08T19:48:34.775Z,17.20
2018-01-08T19:49:34.769Z,17.30
2018-01-08T19:50:34.764Z,16.90
2018-01-08T19:51:34.757Z,17.10
2018-01-08T19:52:34.750Z,18.00
2018-01-08T19:53:34.744Z,19.60
2018-01-08T19:54:34.740Z,19.50
2018-01-08T19:55:34.735Z,17.00
2018-01-08T19:56:34.727Z,18.10
2018-01-08T19:57:34.720Z,18.80
2018-01-08T19:58:34.715Z,22.50
2018-01-08T19:59:34.708Z,17.70
2018-01-08T20:00:34.701Z,18.30
2018-01-08T20:01:34.695Z,16.60
2018-01-08T20:02:34.691Z,16.10
2018-01-08T20:03:34.684Z,15.50
2018-01-08T20:04:34.678Z,14.30
2018-01-08T20:05:34.672Z,15.90
2018-01-08T20:06:34.666Z,17.20
2018-01-08T20:07:34.660Z,16.90
2018-01-08T20:08:34.652Z,15.20
2018-01-08T20:09:34.646Z,19.60
2018-01-08T20:10:34.642Z,18.40
2018-01-08T20:11:34.636Z,15.70
2018-01-08T20:12:34.627Z,15.10
2018-01-08T20:13:34.622Z,16.20
2018-01-08T20:14:34.617Z,16.10
2018-01-08T20:15:34.611Z,13.30
2018-01-08T20:16:34.603Z,11.70
2018-01-08T20:17:34.597Z,12.60
2018-01-08T20:18:34.591Z,14.60
2018-01-08T20:19:34.587Z,14.70
2018-01-08T20:20:34.579Z,14.10
2018-01-08T20:21:34.575Z,12.90
2018-01-08T20:22:34.568Z,13.30
2018-01-08T20:23:34.562Z,12.40
2018-01-08T20:24:34.554Z,13.70
2018-01-08T20:25:34.549Z,15.80
2018-01-08T20:26:34.543Z,15.20
2018-01-08T20:27:34.537Z,13.50
2018-01-08T20:28:34.528Z,13.70
2018-01-08T20:29:34.524Z,12.90
2018-01-08T20:30:34.518Z,11.80
2018-01-08T20:31:34.511Z,13.40
2018-01-08T20:32:34.505Z,14.90
2018-01-08T20:33:34.499Z,15.00
2018-01-08T20:34:34.493Z,13.20
2018-01-08T20:35:34.487Z,12.40
2018-01-08T20:36:34.479Z,14.70
2018-01-08T20:37:34.474Z,12.90
2018-01-08T20:38:34.468Z,13.00
2018-01-08T20:39:34.463Z,16.30
2018-01-08T20:40:34.456Z,14.10
2018-01-08T20:41:34.454Z,12.60
2018-01-08T20:42:34.443Z,13.60
2018-01-08T20:43:34.437Z,14.20
2018-01-08T20:44:34.430Z,15.20
2018-01-08T20:45:34.425Z,17.10
2018-01-08T20:46:34.419Z,14.60
2018-01-08T20:47:34.413Z,14.40
2018-01-08T20:48:34.406Z,16.10
2018-01-08T20:49:34.400Z,18.60
2018-01-08T20:50:34.395Z,14.50
2018-01-08T20:51:34.388Z,13.70
2018-01-08T20:52:34.382Z,14.40
2018-01-08T20:53:34.375Z,13.90
2018-01-08T20:54:34.370Z,13.80
2018-01-08T20:55:34.364Z,14.10
2018-01-08T20:56:34.357Z,13.00
2018-01-08T20:57:34.351Z,13.30
2018-01-08T20:58:34.345Z,12.60
2018-01-08T20:59:34.338Z,13.30
2018-01-08T21:00:34.333Z,12.60
2018-01-08T21:01:34.327Z,11.50
2018-01-08T21:02:34.321Z,11.00
2018-01-08T21:03:34.315Z,12.40
2018-01-08T21:04:34.310Z,12.90
2018-01-08T21:05:34.301Z,11.60
2018-01-08T21:06:34.296Z,12.20
2018-01-08T21:07:34.290Z,14.60
2018-01-08T21:08:34.282Z,14.40
2018-01-08T21:09:34.276Z,14.90
2018-01-08T21:10:34.271Z,14.40
2018-01-08T21:11:34.263Z,13.70
2018-01-08T21:12:34.256Z,13.00
2018-01-08T21:13:34.251Z,12.10
2018-01-08T21:14:34.244Z,13.10
2018-01-08T21:15:34.239Z,14.30
2018-01-08T21:16:34.231Z,14.80
2018-01-08T21:17:34.227Z,14.50
2018-01-08T21:18:34.219Z,13.40
2018-01-08T21:19:34.214Z,12.70
2018-01-08T21:20:34.207Z,13.80
2018-01-08T21:21:34.208Z,12.10
2018-01-08T21:22:34.196Z,13.60
2018-01-08T21:23:34.190Z,14.20
2018-01-08T21:24:34.182Z,13.20
2018-01-08T21:25:34.177Z,13.30
2018-01-08T21:26:34.172Z,14.30
2018-01-08T21:27:34.166Z,13.70
2018-01-08T21:28:34.158Z,14.40
2018-01-08T21:29:34.152Z,14.30
2018-01-08T21:30:34.146Z,14.50
2018-01-08T21:31:34.140Z,14.20
2018-01-08T21:32:34.132Z,13.50
2018-01-08T21:33:34.127Z,13.50
2018-01-08T21:34:34.122Z,16.10
2018-01-08T21:35:34.119Z,16.10
2018-01-08T21:36:34.108Z,13.70
2018-01-08T21:37:34.102Z,16.10
2018-01-08T21:38:34.096Z,13.80
2018-01-08T21:39:34.090Z,16.60
2018-01-08T21:40:34.086Z,20.20
2018-01-08T21:41:34.078Z,19.70
2018-01-08T21:42:34.072Z,13.40
2018-01-08T21:43:34.064Z,15.50
2018-01-08T21:44:34.059Z,15.00
2018-01-08T21:45:34.052Z,15.30
2018-01-08T21:46:34.047Z,16.10
2018-01-08T21:47:34.044Z,16.80
2018-01-08T21:48:34.033Z,15.40
2018-01-08T21:49:34.027Z,16.30
2018-01-08T21:50:34.063Z,15.90
2018-01-08T21:51:34.017Z,17.90
2018-01-08T21:52:34.009Z,18.50
2018-01-08T21:53:34.003Z,17.60
2018-01-08T21:54:33.998Z,17.30
2018-01-08T21:55:33.992Z,15.60
2018-01-08T21:56:33.985Z,17.50
2018-01-08T21:57:33.978Z,17.60
2018-01-08T21:58:33.974Z,18.00
2018-01-08T21:59:33.966Z,18.70
2018-01-08T22:00:33.959Z,18.90
2018-01-08T22:01:33.954Z,15.90
2018-01-08T22:02:33.948Z,15.40
2018-01-08T22:03:33.942Z,15.30
2018-01-08T22:04:33.935Z,17.10
2018-01-08T22:05:33.929Z,17.50
2018-01-08T22:06:33.922Z,14.40
2018-01-08T22:07:33.918Z,17.70
2018-01-08T22:08:33.909Z,17.90
2018-01-08T22:09:33.906Z,19.20
2018-01-08T22:10:33.899Z,16.80
2018-01-08T22:11:33.892Z,15.40
2018-01-08T22:12:33.886Z,16.10
2018-01-08T22:13:33.880Z,21.70
2018-01-08T22:14:33.873Z,19.20
2018-01-08T22:15:33.874Z,19.30
2018-01-08T22:16:33.862Z,18.40
2018-01-08T22:17:33.855Z,16.90
2018-01-08T22:18:33.850Z,16.00
2018-01-08T22:19:33.844Z,17.10
2018-01-08T22:20:33.836Z,14.40
2018-01-08T22:21:33.831Z,15.40
2018-01-08T22:22:33.825Z,14.20
2018-01-08T22:23:33.821Z,14.00
2018-01-08T22:24:33.812Z,17.50
2018-01-08T22:25:33.805Z,14.70
2018-01-08T22:26:33.801Z,16.90
2018-01-08T22:27:33.795Z,15.70
2018-01-08T22:28:33.788Z,15.80
2018-01-08T22:29:33.782Z,17.70
2018-01-08T22:30:33.779Z,15.20
2018-01-08T22:31:33.769Z,15.60
2018-01-08T22:32:33.763Z,17.50
2018-01-08T22:33:33.757Z,14.90
2018-01-08T22:34:33.751Z,16.40
2018-01-08T22:35:33.746Z,15.60
2018-01-08T22:36:33.741Z,14.80
2018-01-08T22:37:33.731Z,13.90
2018-01-08T22:38:33.727Z,15.60
2018-01-08T22:39:33.722Z,14.60
2018-01-08T22:40:33.714Z,13.20
2018-01-08T22:41:33.708Z,16.70
2018-01-08T22:42:33.702Z,13.10
2018-01-08T22:43:33.702Z,14.10
2018-01-08T22:44:33.689Z,15.70
2018-01-08T22:45:33.683Z,17.20
2018-01-08T22:46:33.676Z,15.10
2018-01-08T22:47:33.671Z,17.20
2018-01-08T22:48:33.663Z,16.90
2018-01-08T22:49:33.657Z,13.00
2018-01-08T22:50:33.653Z,15.00
2018-01-08T22:51:33.645Z,15.50
2018-01-08T22:52:33.642Z,14.40
2018-01-08T22:53:33.632Z,15.30
2018-01-08T22:54:33.627Z,15.30
2018-01-08T22:55:33.621Z,15.00
2018-01-08T22:56:33.613Z,15.80
2018-01-08T22:57:33.609Z,16.90
2018-01-08T22:58:33.601Z,17.40
2018-01-08T22:59:33.597Z,14.60
2018-01-08T23:00:33.588Z,17.70
2018-01-08T23:01:33.583Z,17.30
2018-01-08T23:02:33.578Z,15.40
2018-01-08T23:03:33.576Z,15.80
2018-01-08T23:04:33.563Z,15.60
2018-01-08T23:05:33.557Z,14.30
2018-01-08T23:06:33.554Z,16.60
2018-01-08T23:07:33.547Z,19.80
2018-01-08T23:08:33.538Z,15.90
2018-01-08T23:09:33.532Z,17.70
2018-01-08T23:10:33.527Z,13.70
2018-01-08T23:11:33.521Z,15.10
2018-01-08T23:12:33.513Z,13.50
2018-01-08T23:13:33.507Z,18.60
2018-01-08T23:14:33.501Z,15.60
2018-01-08T23:15:33.494Z,13.20
2018-01-08T23:16:33.488Z,13.60
2018-01-08T23:17:33.481Z,13.40
2018-01-08T23:18:33.476Z,15.40
2018-01-08T23:19:33.470Z,16.10
2018-01-08T23:20:33.520Z,14.60
2018-01-08T23:21:33.457Z,14.90
2018-01-08T23:22:33.450Z,19.10
2018-01-08T23:23:33.456Z,15.00
2018-01-08T23:24:33.438Z,14.90
2018-01-08T23:25:33.431Z,16.60
2018-01-08T23:26:33.726Z,14.40
2018-01-08T23:27:33.419Z,17.90
2018-01-08T23:28:33.413Z,18.50
2018-01-08T23:29:33.407Z,18.00
2018-01-08T23:30:33.400Z,16.70
2018-01-08T23:31:33.395Z,15.00
2018-01-08T23:32:33.387Z,14.30
2018-01-08T23:33:33.382Z,14.20
2018-01-08T23:34:33.375Z,17.60
2018-01-08T23:35:33.369Z,17.30
2018-01-08T23:36:33.362Z,15.70
2018-01-08T23:37:33.355Z,15.30
2018-01-08T23:38:33.350Z,13.30
2018-01-08T23:39:33.344Z,16.30
2018-01-08T23:40:33.336Z,12.80
2018-01-08T23:41:33.330Z,12.00
2018-01-08T23:42:33.325Z,14.80
2018-01-08T23:43:33.318Z,15.70
2018-01-08T23:44:33.311Z,12.00
2018-01-08T23:45:33.304Z,14.40
2018-01-08T23:46:33.299Z,13.60
2018-01-08T23:47:33.294Z,15.30
2018-01-08T23:48:33.286Z,15.80
2018-01-08T23:49:33.279Z,13.00
2018-01-08T23:50:33.274Z,19.70
2018-01-08T23:51:33.268Z,21.30
2018-01-08T23:52:33.260Z,18.60
2018-01-08T23:53:33.254Z,18.60
2018-01-08T23:54:33.247Z,22.10
2018-01-08T23:55:33.253Z,20.60
2018-01-08T23:56:33.235Z,16.70
2018-01-08T23:57:33.228Z,18.10
2018-01-08T23:58:33.224Z,16.40
2018-01-08T23:59:33.217Z,17.00
